To NAV CANADA Home Page Login to a new session Search on AWWS site Feedback and Comments Disclaimer Vers la page française équivalente Tips FAQ What's new on the site To the Forecasts and Observations / NOTAM section To "File a Flight Plan" website Publications and other links Update of the User's profile FIC Telephone Numbers My Weather Data Folder Route Weather Data Regional Weather Data Local Weather Data To the Forecasts and Observations / NOTAM section
Request Generated 08/31/2015 at 15:16:22 UTC . Weather information available at that time is displayed.

METAR/TAF

ST. ANTHONY/NL    (show WxCam)

METAR CYAY 311500Z AUTO 13010KT 9SM -RA FEW041 SCT050 BKN065 OVC094
16/16 A2971 RMK SLP063 DENSITY ALT 500FT=
METAR CYAY 311400Z AUTO 13009KT 9SM -RA FEW031 SCT036 BKN043 OVC070
16/15 A2973 RMK SLP069 DENSITY ALT 400FT=
METAR CYAY 311300Z AUTO 13010KT 9SM -RA SCT041 BKN049 15/14 A2975 RMK
SLP074 DENSITY ALT 200FT=

TAF CYAY 311342Z 3114/0102 13010KT P6SM -SHRA BKN040 TEMPO 3114/3119
5SM -SHRA BR BKN020 OVC040
FM311900 19012G22KT 11/2SM -RA BR OVC007 TEMPO 3119/3123 6SM
-SHRA BR SCT007 OVC020
FM312300 15010KT 6SM -SHRA BR BKN040 TEMPO 3123/0102 3SM -SHRA BR
BKN007 OVC040
RMK FCST BASED ON AUTO OBS. NXT FCST BY 312000Z=
Your time UTC time
Weather data provided by Environment Canada and NAV CANADA